Attleborough, United Kingdom
Current Conditions -  °F | °C
As of 5:50 AM on Sunday 23 Nov 2014 (Local Time) from EGSH Reporting Station
Moderate Rain Moderate Rain  
Wind Chill: 52°   Ceiling: 100
Heat Index: 52°   Visibility: 1.3mi
Dew Point: 52°   Wind: 9mph
Humidity: 100%   Direction: 330°NNW
Pressure: 29.94"   Gusts: NA
Location:  52.51°N, 1°E
Report Text: EGSH 230550Z 33008KT 2100 RA BKN001 BKN005 OVC008 11/11 Q1014 REDZ
Loading
Personal Weather Stations






























Interactive Weather Map New forecast layout! Learn more

10-Day Weather Forecast

Advertisements
Track Severe Weather on mobile